createdAt,value
2018-10-03T00:05:50.661Z,99.20
2018-10-03T00:20:35.987Z,99.90
2018-10-03T00:23:03.646Z,99.90
2018-10-03T00:27:59.151Z,99.90
2018-10-03T00:32:54.306Z,99.90
2018-10-03T00:37:49.566Z,99.90
2018-10-03T00:40:17.218Z,99.90
2018-10-03T00:45:12.472Z,99.90
2018-10-03T00:47:40.102Z,99.90
2018-10-03T00:50:07.769Z,99.90
2018-10-03T00:52:35.423Z,99.90
2018-10-03T00:55:03.105Z,99.90
2018-10-03T00:57:30.725Z,99.90
2018-10-03T00:59:58.340Z,99.90
2018-10-03T01:04:53.556Z,99.90
2018-10-03T01:12:16.254Z,99.90
2018-10-03T01:17:11.423Z,99.90
2018-10-03T01:19:39.033Z,99.90
2018-10-03T01:22:06.647Z,99.90
2018-10-03T01:24:34.258Z,99.90
2018-10-03T01:27:01.893Z,99.90
2018-10-03T01:31:57.083Z,99.90
2018-10-03T01:34:24.754Z,99.90
2018-10-03T01:36:52.418Z,99.90
2018-10-03T01:44:15.291Z,99.90
2018-10-03T01:49:10.419Z,99.90
2018-10-03T01:51:38.067Z,99.90
2018-10-03T01:54:05.691Z,99.90
2018-10-03T01:56:33.316Z,99.90
2018-10-03T01:59:00.993Z,99.90
2018-10-03T02:03:56.514Z,99.90
2018-10-03T02:06:24.139Z,99.90
2018-10-03T02:16:14.429Z,99.90
2018-10-03T02:18:42.091Z,99.90
2018-10-03T02:23:37.240Z,99.90
2018-10-03T02:26:04.899Z,99.90
2018-10-03T02:28:32.529Z,99.90
2018-10-03T02:33:27.743Z,99.90
2018-10-03T02:40:50.485Z,99.90
2018-10-03T02:45:45.679Z,99.90
2018-10-03T02:48:13.361Z,99.90
2018-10-03T02:50:41.022Z,99.90
2018-10-03T03:00:31.281Z,99.90
2018-10-03T03:07:54.006Z,99.90
2018-10-03T03:17:44.316Z,99.90
2018-10-03T03:20:11.993Z,99.90
2018-10-03T03:22:39.658Z,99.90
2018-10-03T03:25:07.271Z,99.90
2018-10-03T03:27:34.871Z,99.90
2018-10-03T03:32:30.042Z,99.90
2018-10-03T03:34:57.638Z,99.90
2018-10-03T03:39:52.786Z,99.90
2018-10-03T03:47:15.454Z,99.90
2018-10-03T03:52:11.179Z,99.90
2018-10-03T03:54:38.767Z,99.90
2018-10-03T04:04:28.928Z,99.90
2018-10-03T04:06:56.539Z,99.90
2018-10-03T04:11:51.677Z,99.90
2018-10-03T04:14:19.295Z,99.90
2018-10-03T04:24:10.550Z,99.90
2018-10-03T04:26:38.807Z,99.90
2018-10-03T04:29:06.443Z,99.90
2018-10-03T04:34:02.790Z,99.90
2018-10-03T04:36:30.550Z,99.90
2018-10-03T04:41:25.668Z,99.90
2018-10-03T04:46:21.367Z,99.90
2018-10-03T04:48:49.009Z,99.90
2018-10-03T04:51:17.059Z,99.90
2018-10-03T04:53:44.687Z,99.90
2018-10-03T04:56:12.308Z,99.90
2018-10-03T04:58:39.935Z,99.90
2018-10-03T05:03:35.646Z,99.90
2018-10-03T05:13:25.904Z,99.90
2018-10-03T05:18:21.048Z,99.90
2018-10-03T05:20:48.678Z,99.90
2018-10-03T05:25:43.810Z,99.90
2018-10-03T05:30:39.156Z,99.90
2018-10-03T05:35:34.291Z,99.90
2018-10-03T05:38:01.910Z,99.90
2018-10-03T05:42:57.090Z,99.90
2018-10-03T05:50:19.758Z,99.90
2018-10-03T05:52:47.367Z,99.90
2018-10-03T05:57:42.501Z,99.90
2018-10-03T06:02:37.738Z,99.90
2018-10-03T06:10:00.471Z,99.90
2018-10-03T06:12:28.090Z,99.90
2018-10-03T06:14:55.738Z,99.90
2018-10-03T06:19:57.646Z,99.90
2018-10-03T06:22:25.266Z,99.90
2018-10-03T06:24:52.875Z,99.90
2018-10-03T06:27:20.523Z,99.90
2018-10-03T06:29:48.196Z,99.90
2018-10-03T06:32:15.971Z,99.90
2018-10-03T06:34:43.707Z,99.90
2018-10-03T06:37:11.409Z,99.90
2018-10-03T06:39:39.031Z,99.90
2018-10-03T06:42:06.727Z,99.90
2018-10-03T06:44:34.375Z,99.90
2018-10-03T06:49:29.518Z,99.90
2018-10-03T06:51:57.171Z,99.90
2018-10-03T06:54:24.898Z,99.90
2018-10-03T07:04:15.214Z,99.90
2018-10-03T07:09:11.362Z,99.90
2018-10-03T07:11:39.215Z,99.90
2018-10-03T07:19:02.387Z,99.90
2018-10-03T07:26:25.075Z,99.90
2018-10-03T07:28:52.806Z,99.90
2018-10-03T07:31:20.419Z,99.90
2018-10-03T07:36:15.606Z,99.90
2018-10-03T07:46:06.417Z,99.90
2018-10-03T07:48:34.059Z,99.90
2018-10-03T08:00:51.993Z,99.90
2018-10-03T08:03:19.639Z,99.90
2018-10-03T08:15:37.506Z,99.90
2018-10-03T08:18:05.187Z,99.90
2018-10-03T08:20:32.910Z,99.90
2018-10-03T08:25:28.219Z,99.90
2018-10-03T08:32:51.426Z,99.90
2018-10-03T08:35:18.986Z,99.90
2018-10-03T08:37:46.631Z,99.90
2018-10-03T08:42:41.862Z,99.90
2018-10-03T08:45:09.520Z,99.90
2018-10-03T08:52:33.483Z,99.90
2018-10-03T09:02:23.695Z,99.90
2018-10-03T09:04:51.355Z,99.90
2018-10-03T09:12:14.043Z,99.90
2018-10-03T09:14:41.675Z,99.90
2018-10-03T09:19:36.898Z,99.90
2018-10-03T09:24:32.043Z,99.90
2018-10-03T09:29:27.204Z,99.90
2018-10-03T09:44:12.507Z,99.90
2018-10-03T09:51:35.808Z,99.90
2018-10-03T09:54:03.753Z,99.90
2018-10-03T10:06:23.469Z,99.50
2018-10-03T10:08:51.091Z,99.00
2018-10-03T10:21:38.294Z,97.20
2018-10-03T10:26:33.467Z,96.20
2018-10-03T10:29:01.078Z,95.90
2018-10-03T10:31:28.718Z,95.70
2018-10-03T10:38:51.395Z,95.60
2018-10-03T10:46:14.118Z,94.80
2018-10-03T10:51:09.250Z,94.10
2018-10-03T11:05:54.523Z,98.70
2018-10-03T11:15:44.861Z,99.00
2018-10-03T11:20:40.024Z,99.00
2018-10-03T11:23:07.643Z,96.30
2018-10-03T11:25:35.266Z,97.50
2018-10-03T11:28:02.886Z,97.00
2018-10-03T11:30:30.467Z,96.30
2018-10-03T11:35:25.614Z,95.90
2018-10-03T11:42:48.294Z,96.20
2018-10-03T11:45:15.914Z,92.40
2018-10-03T12:00:01.153Z,93.60
2018-10-03T12:02:28.918Z,93.30
2018-10-03T12:04:56.542Z,93.10
2018-10-03T12:07:24.163Z,93.90
2018-10-03T12:09:51.795Z,94.40
2018-10-03T12:12:19.442Z,94.80
2018-10-03T12:17:14.568Z,97.00
2018-10-03T12:29:32.288Z,99.30
2018-10-03T12:34:27.426Z,99.90
2018-10-03T12:39:23.087Z,99.90
2018-10-03T12:41:50.709Z,99.90
2018-10-03T12:44:18.318Z,99.00
2018-10-03T12:49:13.510Z,94.80
2018-10-03T12:54:08.691Z,95.30
2018-10-03T12:59:03.880Z,95.50
2018-10-03T13:03:59.035Z,95.50
2018-10-03T13:11:21.841Z,96.10
2018-10-03T13:16:17.212Z,96.10
2018-10-03T13:23:39.931Z,96.50
2018-10-03T13:35:57.768Z,97.20
2018-10-03T13:38:25.395Z,97.40
2018-10-03T13:45:48.106Z,97.80
2018-10-03T13:50:43.279Z,97.70
2018-10-03T14:05:29.410Z,98.20
2018-10-03T14:10:24.559Z,98.20
2018-10-03T14:15:19.718Z,99.90
2018-10-03T14:22:42.388Z,99.30
2018-10-03T14:27:37.522Z,98.00
2018-10-03T14:30:05.232Z,97.20
2018-10-03T14:32:32.877Z,96.50
2018-10-03T14:35:00.489Z,99.40
2018-10-03T14:37:28.121Z,96.20
2018-10-03T14:47:18.422Z,95.30
2018-10-03T14:59:36.343Z,95.40
2018-10-03T15:02:04.006Z,95.50
2018-10-03T15:14:21.739Z,97.20
2018-10-03T15:16:49.371Z,96.20
2018-10-03T15:26:39.530Z,97.00
2018-10-03T15:51:15.610Z,97.10
2018-10-03T15:56:10.790Z,97.10
2018-10-03T15:58:38.426Z,97.20
2018-10-03T16:06:01.059Z,98.10
2018-10-03T16:08:28.714Z,97.70
2018-10-03T16:10:56.369Z,97.90
2018-10-03T16:13:23.991Z,98.10
2018-10-03T16:23:14.221Z,98.90
2018-10-03T16:30:36.851Z,99.20
2018-10-03T16:37:59.526Z,99.80
2018-10-03T16:42:54.743Z,99.70
2018-10-03T16:45:22.426Z,99.80
2018-10-03T16:55:12.668Z,99.90
2018-10-03T16:57:40.328Z,99.90
2018-10-03T17:00:07.977Z,99.90
2018-10-03T17:02:35.598Z,99.90
2018-10-03T17:14:53.636Z,99.90
2018-10-03T17:17:21.300Z,99.90
2018-10-03T17:19:48.902Z,99.90
2018-10-03T17:27:11.552Z,99.90
2018-10-03T17:32:06.746Z,99.90
2018-10-03T17:46:54.242Z,99.90
2018-10-03T17:54:17.083Z,99.90
2018-10-03T17:56:44.678Z,99.90
2018-10-03T18:01:48.585Z,99.90
2018-10-03T18:06:43.817Z,99.90
2018-10-03T18:14:07.234Z,99.90
2018-10-03T18:16:34.924Z,99.90
2018-10-03T18:23:57.780Z,99.90
2018-10-03T18:26:25.433Z,99.90
2018-10-03T18:36:15.945Z,99.90
2018-10-03T18:41:11.151Z,99.90
2018-10-03T18:43:38.810Z,99.90
2018-10-03T19:00:51.830Z,99.90
2018-10-03T19:05:47.015Z,99.90
2018-10-03T19:10:42.322Z,99.90
2018-10-03T19:20:32.935Z,99.90
2018-10-03T19:23:00.583Z,99.90
2018-10-03T19:30:23.434Z,99.90
2018-10-03T19:37:46.180Z,99.90
2018-10-03T19:45:08.925Z,99.90
2018-10-03T19:47:36.641Z,99.90
2018-10-03T19:50:04.377Z,99.90
2018-10-03T19:52:32.058Z,99.90
2018-10-03T19:57:27.262Z,99.90
2018-10-03T19:59:54.978Z,99.90
2018-10-03T20:04:50.236Z,99.90
2018-10-03T20:09:45.451Z,99.90
2018-10-03T20:12:13.066Z,99.90
2018-10-03T20:14:40.691Z,99.90
2018-10-03T20:19:35.914Z,99.90
2018-10-03T20:22:03.667Z,99.90
2018-10-03T20:29:26.430Z,99.90
2018-10-03T20:31:54.074Z,99.90
2018-10-03T20:34:21.707Z,99.90
2018-10-03T20:41:44.499Z,99.90
2018-10-03T20:44:12.148Z,99.90
2018-10-03T20:46:39.964Z,99.90
2018-10-03T20:51:35.366Z,99.90
2018-10-03T20:56:30.851Z,99.90
2018-10-03T21:03:53.874Z,99.90
2018-10-03T21:06:21.564Z,99.90
2018-10-03T21:08:49.305Z,99.90
2018-10-03T21:11:16.959Z,99.90
2018-10-03T21:16:12.136Z,99.90
2018-10-03T21:23:34.978Z,99.90
2018-10-03T21:26:02.663Z,99.90
2018-10-03T21:30:57.902Z,99.90
2018-10-03T21:33:25.543Z,99.90
2018-10-03T21:35:53.274Z,99.90
2018-10-03T21:40:48.558Z,99.90
2018-10-03T21:45:43.730Z,99.90
2018-10-03T21:50:39.130Z,99.90
2018-10-03T21:53:06.787Z,99.90
2018-10-03T21:55:34.398Z,99.90
2018-10-03T22:00:35.167Z,99.90
2018-10-03T22:03:03.040Z,99.90
2018-10-03T22:05:30.741Z,99.90
2018-10-03T22:07:58.387Z,99.90
2018-10-03T22:12:53.583Z,99.90
2018-10-03T22:15:21.253Z,99.90
2018-10-03T22:17:49.138Z,99.90
2018-10-03T22:22:44.377Z,99.90
2018-10-03T22:25:11.990Z,99.90
2018-10-03T22:27:39.611Z,99.90
2018-10-03T22:32:34.791Z,99.90
2018-10-03T22:35:02.450Z,99.90
2018-10-03T22:37:30.123Z,99.90
2018-10-03T22:42:25.322Z,99.90
2018-10-03T22:44:53.022Z,99.90
2018-10-03T22:47:20.767Z,99.90
2018-10-03T22:54:43.599Z,99.90
2018-10-03T22:57:11.338Z,99.90
2018-10-03T22:59:38.999Z,99.90
2018-10-03T23:04:34.532Z,99.90
2018-10-03T23:07:02.238Z,99.90
2018-10-03T23:11:57.490Z,99.90
2018-10-03T23:14:25.078Z,99.90
2018-10-03T23:16:52.819Z,99.90
2018-10-03T23:19:20.439Z,99.90
2018-10-03T23:24:15.599Z,99.90
2018-10-03T23:26:43.242Z,99.90
2018-10-03T23:29:10.872Z,99.90
2018-10-03T23:34:06.017Z,99.90
2018-10-03T23:39:01.142Z,99.90
2018-10-03T23:43:56.272Z,99.90
2018-10-03T23:46:23.907Z,99.90
2018-10-03T23:48:51.518Z,99.90
2018-10-03T23:51:19.134Z,99.90
2018-10-03T23:56:14.271Z,99.90
2018-10-03T23:58:41.913Z,99.90
